createdAt,value
2023-02-13T00:00:40.524Z,31.20
2023-02-13T00:03:07.746Z,31.30
2023-02-13T00:05:34.921Z,31.20
2023-02-13T00:08:01.928Z,31.80
2023-02-13T00:10:28.981Z,31.50
2023-02-13T00:12:56.769Z,30.80
2023-02-13T00:15:23.941Z,31.20
2023-02-13T00:17:51.315Z,30.50
2023-02-13T00:20:18.788Z,30.00
2023-02-13T00:22:45.835Z,30.50
2023-02-13T00:25:12.941Z,31.30
2023-02-13T00:27:40.091Z,32.10
2023-02-13T00:30:07.955Z,32.30
2023-02-13T00:32:35.009Z,32.80
2023-02-13T00:35:02.268Z,32.40
2023-02-13T00:37:29.347Z,32.20
2023-02-13T00:39:56.449Z,32.30
2023-02-13T00:42:26.596Z,32.80
2023-02-13T00:44:54.378Z,33.10
2023-02-13T00:47:21.988Z,33.10
2023-02-13T00:49:49.219Z,32.80
2023-02-13T00:52:16.266Z,32.80
2023-02-13T00:54:43.323Z,32.90
2023-02-13T00:57:10.792Z,33.00
2023-02-13T00:59:37.843Z,32.60
2023-02-13T01:02:04.974Z,32.20
2023-02-13T01:04:32.171Z,31.90
2023-02-13T01:06:59.254Z,32.00
2023-02-13T01:09:27.081Z,32.10
2023-02-13T01:11:54.439Z,32.10
2023-02-13T01:14:21.610Z,31.60
2023-02-13T01:16:48.751Z,31.90
2023-02-13T01:19:15.925Z,31.20
2023-02-13T01:21:44.314Z,31.40
2023-02-13T01:24:12.242Z,32.10
2023-02-13T01:26:39.632Z,32.10
2023-02-13T01:29:07.119Z,32.20
2023-02-13T01:31:34.430Z,31.40
2023-02-13T01:34:01.578Z,31.30
2023-02-13T01:36:29.029Z,31.70
2023-02-13T01:38:58.546Z,31.50
2023-02-13T01:41:27.833Z,31.00
2023-02-13T01:44:00.275Z,31.40
2023-02-13T01:46:37.245Z,31.30
2023-02-13T01:49:13.165Z,31.10
2023-02-13T01:51:40.980Z,30.90
2023-02-13T01:54:22.130Z,30.70
2023-02-13T01:56:53.447Z,30.20
2023-02-13T01:59:26.447Z,29.90
2023-02-13T02:01:54.529Z,29.90
2023-02-13T02:04:30.012Z,29.70
2023-02-13T02:07:03.389Z,30.00
2023-02-13T02:09:34.364Z,29.70
2023-02-13T02:12:03.246Z,29.20
2023-02-13T02:14:30.873Z,29.30
2023-02-13T02:16:58.198Z,28.70
2023-02-13T02:19:54.659Z,29.60
2023-02-13T02:22:49.468Z,30.00
2023-02-13T02:25:57.738Z,28.70
2023-02-13T02:28:33.876Z,28.50
2023-02-13T02:31:27.629Z,29.10
2023-02-13T02:34:20.607Z,29.00
2023-02-13T02:37:10.175Z,30.00
2023-02-13T02:40:03.634Z,30.00
2023-02-13T02:43:20.389Z,30.10
2023-02-13T02:46:13.909Z,29.80
2023-02-13T02:49:03.790Z,30.00
2023-02-13T02:52:03.566Z,30.10
2023-02-13T02:55:07.841Z,29.50
2023-02-13T02:58:02.736Z,30.00
2023-02-13T03:00:51.811Z,30.50
2023-02-13T03:03:42.088Z,30.00
2023-02-13T03:06:46.067Z,29.70
2023-02-13T03:09:37.577Z,30.30
2023-02-13T03:12:23.555Z,30.20
2023-02-13T03:14:50.711Z,30.20
2023-02-13T03:17:38.950Z,30.70
2023-02-13T03:20:30.931Z,31.10
2023-02-13T03:23:08.414Z,30.60
2023-02-13T03:25:53.578Z,29.50
2023-02-13T03:28:49.722Z,29.20
2023-02-13T03:31:31.644Z,29.00
2023-02-13T03:34:13.166Z,28.80
2023-02-13T03:37:07.330Z,29.30
2023-02-13T03:39:48.234Z,29.70
2023-02-13T03:42:35.335Z,29.50
2023-02-13T03:45:46.543Z,30.00
2023-02-13T03:48:48.695Z,30.10
2023-02-13T03:51:40.210Z,30.60
2023-02-13T03:54:52.496Z,30.30
2023-02-13T03:57:40.781Z,30.00
2023-02-13T04:00:12.686Z,30.00
2023-02-13T04:03:00.365Z,30.30
2023-02-13T04:05:32.562Z,30.60
2023-02-13T04:07:59.778Z,30.40
2023-02-13T04:10:32.429Z,29.90
2023-02-13T04:13:51.318Z,29.50
2023-02-13T04:16:46.726Z,28.90
2023-02-13T04:19:14.974Z,28.80
2023-02-13T04:21:42.130Z,28.90
2023-02-13T04:24:10.274Z,28.80
2023-02-13T04:26:40.287Z,28.30
2023-02-13T04:29:07.452Z,28.90
2023-02-13T04:31:35.046Z,29.70
2023-02-13T04:34:02.359Z,30.20
2023-02-13T04:36:31.870Z,29.90
2023-02-13T04:38:58.879Z,29.40
2023-02-13T04:41:26.519Z,29.90
2023-02-13T04:43:53.593Z,29.80
2023-02-13T04:46:20.676Z,29.90
2023-02-13T04:48:47.830Z,29.80
2023-02-13T04:51:14.860Z,29.30
2023-02-13T04:53:41.881Z,29.70
2023-02-13T04:56:09.133Z,29.20
2023-02-13T04:58:36.208Z,29.30
2023-02-13T05:01:03.371Z,29.70
2023-02-13T05:03:30.565Z,29.90
2023-02-13T05:05:57.629Z,29.50
2023-02-13T05:08:24.685Z,30.30
2023-02-13T05:10:51.788Z,30.50
2023-02-13T05:13:21.939Z,31.10
2023-02-13T05:15:49.656Z,31.80
2023-02-13T05:18:16.988Z,31.50
2023-02-13T05:20:44.100Z,32.10
2023-02-13T05:23:24.342Z,32.00
2023-02-13T05:25:51.476Z,31.80
2023-02-13T05:28:37.682Z,31.80
2023-02-13T05:31:05.040Z,32.00
2023-02-13T05:33:32.222Z,32.10
2023-02-13T05:35:59.252Z,32.60
2023-02-13T05:38:26.492Z,32.20
2023-02-13T05:40:53.525Z,31.60
2023-02-13T05:43:20.872Z,30.90
2023-02-13T05:45:49.390Z,30.10
2023-02-13T05:48:16.668Z,29.90
2023-02-13T05:50:43.982Z,29.90
2023-02-13T05:53:11.124Z,29.10
2023-02-13T05:55:39.770Z,28.30
2023-02-13T05:58:08.631Z,28.30
2023-02-13T06:00:35.782Z,28.00
2023-02-13T06:03:02.953Z,29.30
2023-02-13T06:05:30.193Z,29.50
2023-02-13T06:07:57.254Z,29.80
2023-02-13T06:10:24.850Z,29.30
2023-02-13T06:12:52.001Z,30.10
2023-02-13T06:15:19.013Z,30.30
2023-02-13T06:17:46.084Z,29.50
2023-02-13T06:20:13.512Z,30.10
2023-02-13T06:22:40.550Z,29.70
2023-02-13T06:25:08.011Z,29.70
2023-02-13T06:27:35.325Z,28.90
2023-02-13T06:30:02.460Z,29.10
2023-02-13T06:32:29.516Z,29.90
2023-02-13T06:34:56.657Z,30.90
2023-02-13T06:37:23.715Z,30.50
2023-02-13T06:39:50.863Z,29.70
2023-02-13T06:42:18.983Z,30.50
2023-02-13T06:44:46.041Z,30.60
2023-02-13T06:47:13.144Z,30.70
2023-02-13T06:49:40.458Z,30.20
2023-02-13T06:52:07.612Z,30.90
2023-02-13T06:54:46.774Z,30.20
2023-02-13T06:57:14.714Z,29.90
2023-02-13T06:59:42.113Z,29.70
2023-02-13T07:02:12.548Z,30.70
2023-02-13T07:04:39.959Z,30.60
2023-02-13T07:07:07.329Z,30.00
2023-02-13T07:09:34.480Z,30.30
2023-02-13T07:12:05.844Z,31.30
2023-02-13T07:14:33.114Z,31.40
2023-02-13T07:17:00.401Z,31.30
2023-02-13T07:19:27.484Z,30.90
2023-02-13T07:21:54.616Z,31.40
2023-02-13T07:24:21.665Z,31.90
2023-02-13T07:26:48.703Z,31.80
2023-02-13T07:29:15.847Z,31.70
2023-02-13T07:31:42.950Z,31.40
2023-02-13T07:34:09.977Z,31.10
2023-02-13T07:36:37.028Z,30.90
2023-02-13T07:39:04.206Z,31.20
2023-02-13T07:41:31.230Z,31.10
2023-02-13T07:43:58.338Z,31.40
2023-02-13T07:46:25.441Z,30.80
2023-02-13T07:48:53.338Z,30.60
2023-02-13T07:51:20.946Z,30.90
2023-02-13T07:53:48.094Z,30.50
2023-02-13T07:56:15.111Z,30.80
2023-02-13T07:58:42.190Z,31.20
2023-02-13T08:01:11.802Z,31.60
2023-02-13T08:03:39.600Z,31.60
2023-02-13T08:06:07.987Z,31.00
2023-02-13T08:08:35.720Z,31.50
2023-02-13T08:11:55.033Z,32.00
2023-02-13T08:14:27.589Z,31.30
2023-02-13T08:16:55.386Z,31.10
2023-02-13T08:19:22.500Z,30.80
2023-02-13T08:21:49.630Z,30.40
2023-02-13T08:24:16.972Z,29.70
2023-02-13T08:26:44.377Z,29.50
2023-02-13T08:29:11.707Z,29.90
2023-02-13T08:31:39.018Z,29.60
2023-02-13T08:34:06.044Z,30.00
2023-02-13T08:36:33.385Z,29.20
2023-02-13T08:39:00.429Z,29.00
2023-02-13T08:41:27.597Z,29.30
2023-02-13T08:43:55.513Z,29.80
2023-02-13T08:46:22.637Z,29.80
2023-02-13T08:48:51.881Z,29.10
2023-02-13T08:51:19.092Z,29.20
2023-02-13T08:53:46.330Z,29.90
2023-02-13T08:56:13.382Z,29.90
2023-02-13T08:58:40.518Z,29.40
2023-02-13T09:01:09.132Z,29.10
2023-02-13T09:03:36.878Z,29.30
2023-02-13T09:06:04.445Z,28.80
2023-02-13T09:08:31.616Z,29.60
2023-02-13T09:11:01.435Z,30.50
2023-02-13T09:13:35.628Z,30.30
2023-02-13T09:16:06.077Z,30.10
2023-02-13T09:18:34.388Z,30.20
2023-02-13T09:21:06.498Z,30.30
2023-02-13T09:23:35.682Z,30.90
2023-02-13T09:26:04.658Z,31.20
2023-02-13T09:28:33.501Z,30.70
2023-02-13T09:31:05.028Z,30.30
2023-02-13T09:33:32.102Z,30.80
2023-02-13T09:35:59.517Z,30.20
2023-02-13T09:38:26.739Z,30.60
2023-02-13T09:41:00.030Z,30.70
2023-02-13T09:43:35.387Z,29.90
2023-02-13T09:46:12.902Z,30.60
2023-02-13T09:48:44.331Z,30.90
2023-02-13T09:51:17.725Z,31.40
2023-02-13T09:53:53.650Z,31.40
2023-02-13T09:56:55.357Z,31.70
2023-02-13T09:59:47.016Z,30.80
2023-02-13T10:02:47.892Z,31.80
2023-02-13T10:05:29.998Z,30.90
2023-02-13T10:08:03.214Z,32.10
2023-02-13T10:10:36.766Z,31.70
2023-02-13T10:13:14.795Z,30.90
2023-02-13T10:15:57.909Z,31.30
2023-02-13T10:18:32.428Z,31.60
2023-02-13T10:21:02.769Z,31.60
2023-02-13T10:24:05.132Z,32.40
2023-02-13T10:26:45.815Z,31.90
2023-02-13T10:29:57.250Z,31.60
2023-02-13T10:33:11.917Z,32.30
2023-02-13T10:35:39.655Z,32.40
2023-02-13T10:38:22.112Z,30.90
2023-02-13T10:41:05.918Z,30.20
2023-02-13T10:43:50.752Z,30.30
2023-02-13T10:46:30.368Z,30.60
2023-02-13T10:49:18.006Z,30.10
2023-02-13T10:52:13.455Z,30.20
2023-02-13T10:54:46.870Z,30.30
2023-02-13T10:57:28.504Z,30.80
2023-02-13T11:00:01.387Z,30.60
2023-02-13T11:02:34.837Z,29.50
2023-02-13T11:05:08.143Z,29.60
2023-02-13T11:07:37.113Z,30.20
2023-02-13T11:10:18.022Z,30.30
2023-02-13T11:12:46.308Z,30.50
2023-02-13T11:15:31.744Z,30.30
2023-02-13T11:18:13.683Z,29.80
2023-02-13T11:20:50.044Z,28.80
2023-02-13T11:23:29.497Z,30.30
2023-02-13T11:26:24.094Z,30.60
2023-02-13T11:28:57.889Z,31.60
2023-02-13T11:31:45.353Z,32.20
2023-02-13T11:34:27.433Z,32.00
2023-02-13T11:37:14.016Z,30.50
2023-02-13T11:39:42.796Z,31.30
2023-02-13T11:42:25.601Z,30.40
2023-02-13T11:45:00.235Z,30.60
2023-02-13T11:47:39.777Z,31.10
2023-02-13T11:50:20.122Z,30.90
2023-02-13T11:52:54.696Z,30.30
2023-02-13T11:55:38.260Z,30.50
2023-02-13T11:58:25.465Z,30.10
2023-02-13T12:01:20.025Z,29.80
2023-02-13T12:04:05.983Z,29.40
2023-02-13T12:06:39.906Z,29.80
2023-02-13T12:09:15.734Z,29.50
2023-02-13T12:11:54.259Z,30.10
2023-02-13T12:14:25.372Z,29.70
2023-02-13T12:17:01.525Z,29.10
2023-02-13T12:19:42.428Z,29.10
2023-02-13T12:22:24.543Z,29.70
2023-02-13T12:25:41.406Z,29.80
2023-02-13T12:28:22.182Z,30.30
2023-02-13T12:31:28.500Z,30.50
2023-02-13T12:34:24.238Z,29.70
2023-02-13T12:37:20.629Z,29.20
2023-02-13T12:40:18.467Z,28.60
2023-02-13T12:43:19.339Z,29.60
2023-02-13T12:46:02.836Z,29.30
2023-02-13T12:48:40.661Z,30.20
2023-02-13T12:51:34.943Z,29.50
2023-02-13T12:54:56.106Z,29.60
2023-02-13T12:57:51.839Z,29.60
2023-02-13T13:00:34.909Z,28.80
2023-02-13T13:03:24.083Z,29.00
2023-02-13T13:06:08.946Z,30.00
2023-02-13T13:08:59.882Z,29.70
2023-02-13T13:11:56.095Z,30.50
2023-02-13T13:15:05.956Z,31.10
2023-02-13T13:17:46.496Z,29.20
2023-02-13T13:20:44.242Z,29.10
2023-02-13T13:23:29.844Z,29.10
2023-02-13T13:26:26.280Z,29.70
2023-02-13T13:28:56.973Z,28.80
2023-02-13T13:31:26.529Z,29.40
2023-02-13T13:33:58.626Z,28.60
2023-02-13T13:36:41.313Z,28.70
2023-02-13T13:39:52.441Z,29.40
2023-02-13T13:42:26.585Z,30.40
2023-02-13T13:45:20.289Z,30.30
2023-02-13T13:47:56.174Z,29.80
2023-02-13T13:50:26.619Z,29.10
2023-02-13T13:53:21.193Z,30.60
2023-02-13T13:55:48.580Z,30.60
2023-02-13T13:58:26.070Z,30.90
2023-02-13T14:01:14.606Z,30.20
2023-02-13T14:03:47.025Z,31.50
2023-02-13T14:06:16.878Z,31.40
2023-02-13T14:08:44.466Z,30.50
2023-02-13T14:11:40.498Z,29.80
2023-02-13T14:14:30.677Z,29.90
2023-02-13T14:17:02.174Z,29.50
2023-02-13T14:19:40.839Z,30.60
2023-02-13T14:22:19.820Z,30.90
2023-02-13T14:25:02.201Z,30.30
2023-02-13T14:27:37.970Z,30.70
2023-02-13T14:30:26.049Z,30.70
2023-02-13T14:32:53.612Z,30.70
2023-02-13T14:35:38.785Z,30.20
2023-02-13T14:38:10.923Z,29.40
2023-02-13T14:40:44.417Z,29.10
2023-02-13T14:43:21.197Z,29.40
2023-02-13T14:46:12.663Z,29.70
2023-02-13T14:48:55.803Z,30.20
2023-02-13T14:52:09.542Z,29.80
2023-02-13T14:54:48.048Z,30.50
2023-02-13T14:57:25.227Z,30.50
2023-02-13T15:00:15.436Z,30.60
2023-02-13T15:02:51.787Z,29.20
2023-02-13T15:05:20.694Z,29.30
2023-02-13T15:08:15.126Z,29.80
2023-02-13T15:10:49.679Z,28.90
2023-02-13T15:13:23.634Z,29.40
2023-02-13T15:15:56.045Z,30.10
2023-02-13T15:18:30.641Z,28.80
2023-02-13T15:21:00.857Z,28.50
2023-02-13T15:23:33.349Z,29.20
2023-02-13T15:26:06.064Z,29.80
2023-02-13T15:28:34.818Z,28.80
2023-02-13T15:31:03.399Z,28.20
2023-02-13T15:33:45.816Z,28.50
2023-02-13T15:36:25.492Z,29.30
2023-02-13T15:39:00.799Z,29.30
2023-02-13T15:41:36.115Z,29.20
2023-02-13T15:44:04.293Z,29.20
2023-02-13T15:46:38.816Z,29.30
2023-02-13T15:49:09.285Z,28.80
2023-02-13T15:51:36.563Z,29.10
2023-02-13T15:54:07.053Z,29.10
2023-02-13T15:56:35.241Z,29.80
2023-02-13T15:59:03.602Z,29.60
2023-02-13T16:01:32.275Z,29.60
2023-02-13T16:04:12.534Z,29.30
2023-02-13T16:06:45.922Z,28.70
2023-02-13T16:09:33.696Z,28.60
2023-02-13T16:12:18.127Z,28.00
2023-02-13T16:14:51.506Z,28.10
2023-02-13T16:17:32.008Z,28.40
2023-02-13T16:20:11.567Z,29.00
2023-02-13T16:22:44.567Z,28.60
2023-02-13T16:25:20.828Z,29.10
2023-02-13T16:28:16.906Z,29.20
2023-02-13T16:30:47.051Z,29.30
2023-02-13T16:33:16.958Z,28.70
2023-02-13T16:35:45.986Z,29.20
2023-02-13T16:38:35.766Z,28.50
2023-02-13T16:41:17.759Z,28.00
2023-02-13T16:43:52.596Z,28.00
2023-02-13T16:46:21.124Z,29.00
2023-02-13T16:48:57.301Z,28.90
2023-02-13T16:51:44.652Z,29.50
2023-02-13T16:54:11.754Z,28.70
2023-02-13T16:56:47.304Z,28.60
2023-02-13T16:59:32.915Z,28.90
2023-02-13T17:02:16.930Z,29.40
2023-02-13T17:05:05.785Z,29.40
2023-02-13T17:07:38.688Z,29.40
2023-02-13T17:10:28.179Z,29.20
2023-02-13T17:13:01.539Z,29.50
2023-02-13T17:15:31.924Z,29.30
2023-02-13T17:18:00.015Z,28.70
2023-02-13T17:20:30.396Z,28.70
2023-02-13T17:22:59.905Z,28.40
2023-02-13T17:25:31.702Z,29.00
2023-02-13T17:28:11.409Z,28.00
2023-02-13T17:30:47.261Z,28.40
2023-02-13T17:33:19.958Z,29.50
2023-02-13T17:35:47.311Z,29.50
2023-02-13T17:38:14.753Z,29.40
2023-02-13T17:40:43.531Z,29.30
2023-02-13T17:43:12.141Z,29.10
2023-02-13T17:45:39.402Z,28.80
2023-02-13T17:48:06.516Z,29.10
2023-02-13T17:50:35.587Z,29.10
2023-02-13T17:53:11.849Z,28.80
2023-02-13T17:55:38.975Z,28.70
2023-02-13T17:58:06.006Z,28.80
2023-02-13T18:00:35.505Z,28.90
2023-02-13T18:03:03.505Z,28.00
2023-02-13T18:05:32.539Z,27.90
2023-02-13T18:08:02.272Z,28.00
2023-02-13T18:10:32.125Z,28.00
2023-02-13T18:13:04.263Z,28.20
2023-02-13T18:15:43.171Z,28.30
2023-02-13T18:18:12.019Z,27.90
2023-02-13T18:20:39.559Z,28.20
2023-02-13T18:23:07.591Z,28.80
2023-02-13T18:25:36.459Z,28.70
2023-02-13T18:28:04.019Z,28.70
2023-02-13T18:30:31.218Z,28.20
2023-02-13T18:32:59.404Z,28.00
2023-02-13T18:35:27.156Z,28.70
2023-02-13T18:37:54.262Z,28.20
2023-02-13T18:40:22.015Z,28.00
2023-02-13T18:42:51.129Z,28.20
2023-02-13T18:45:19.712Z,28.50
2023-02-13T18:47:47.096Z,28.40
2023-02-13T18:50:14.186Z,28.80
2023-02-13T18:52:41.313Z,29.20
2023-02-13T18:55:09.458Z,29.30
2023-02-13T18:57:36.671Z,29.40
2023-02-13T19:00:05.901Z,28.80
2023-02-13T19:02:33.603Z,28.60
2023-02-13T19:05:01.314Z,27.50
2023-02-13T19:07:28.466Z,26.40
2023-02-13T19:09:56.221Z,25.60
2023-02-13T19:12:23.365Z,25.30
2023-02-13T19:14:50.437Z,25.60
2023-02-13T19:17:17.807Z,26.30
2023-02-13T19:19:48.950Z,26.80
2023-02-13T19:22:15.914Z,27.50
2023-02-13T19:24:43.253Z,28.00
2023-02-13T19:27:11.426Z,28.20
2023-02-13T19:29:38.574Z,28.40
2023-02-13T19:32:05.832Z,28.20
2023-02-13T19:34:33.056Z,28.10
2023-02-13T19:37:00.106Z,28.00
2023-02-13T19:39:27.277Z,27.90
2023-02-13T19:41:54.416Z,27.30
2023-02-13T19:44:21.474Z,27.10
2023-02-13T19:46:48.632Z,27.20
2023-02-13T19:49:16.688Z,27.50
2023-02-13T19:51:46.220Z,27.60
2023-02-13T19:54:13.536Z,27.60
2023-02-13T19:56:41.339Z,28.20
2023-02-13T19:59:12.332Z,28.50
2023-02-13T20:01:42.988Z,28.60
2023-02-13T20:04:11.102Z,28.80
2023-02-13T20:06:38.775Z,28.20
2023-02-13T20:09:08.988Z,28.20
2023-02-13T20:11:36.355Z,28.60
2023-02-13T20:14:05.389Z,28.90
2023-02-13T20:16:35.788Z,28.90
2023-02-13T20:19:07.019Z,29.20
2023-02-13T20:21:35.279Z,28.90
2023-02-13T20:24:03.300Z,29.10
2023-02-13T20:26:30.781Z,29.20
2023-02-13T20:28:59.746Z,28.70
2023-02-13T20:31:29.211Z,28.80
2023-02-13T20:33:57.454Z,28.60
2023-02-13T20:36:31.046Z,28.50
2023-02-13T20:39:01.116Z,29.10
2023-02-13T20:41:30.299Z,29.30
2023-02-13T20:44:02.631Z,29.40
2023-02-13T20:46:31.435Z,29.50
2023-02-13T20:48:58.471Z,30.00
2023-02-13T20:51:26.077Z,29.90
2023-02-13T20:53:54.190Z,30.10
2023-02-13T20:56:23.637Z,30.70
2023-02-13T20:58:52.459Z,30.90
2023-02-13T21:01:22.014Z,30.40
2023-02-13T21:03:53.822Z,30.60
2023-02-13T21:06:26.946Z,30.80
2023-02-13T21:08:54.443Z,31.30
2023-02-13T21:11:22.358Z,31.10
2023-02-13T21:13:49.947Z,30.80
2023-02-13T21:16:38.018Z,30.70
2023-02-13T21:19:08.777Z,30.70
2023-02-13T21:21:37.328Z,30.50
2023-02-13T21:24:08.779Z,30.40
2023-02-13T21:26:36.302Z,30.90
2023-02-13T21:29:04.018Z,31.20
2023-02-13T21:31:35.027Z,30.80
2023-02-13T21:34:07.284Z,30.50
2023-02-13T21:36:35.963Z,30.30
2023-02-13T21:39:03.458Z,30.20
2023-02-13T21:41:30.622Z,30.50
2023-02-13T21:43:57.797Z,30.50
2023-02-13T21:46:27.681Z,30.80
2023-02-13T21:49:06.262Z,30.90
2023-02-13T21:51:35.952Z,30.60
2023-02-13T21:54:04.529Z,30.60
2023-02-13T21:56:37.150Z,30.80
2023-02-13T21:59:05.190Z,31.10
2023-02-13T22:01:35.316Z,30.60
2023-02-13T22:04:07.475Z,30.50
2023-02-13T22:06:36.527Z,30.80
2023-02-13T22:09:06.365Z,30.90
2023-02-13T22:11:33.998Z,31.20
2023-02-13T22:14:03.616Z,31.40
2023-02-13T22:16:32.982Z,31.80
2023-02-13T22:19:00.960Z,31.80
2023-02-13T22:21:29.902Z,31.50
2023-02-13T22:23:57.700Z,31.60
2023-02-13T22:26:30.236Z,31.70
2023-02-13T22:29:01.104Z,32.20
2023-02-13T22:31:29.356Z,32.30
2023-02-13T22:34:05.526Z,32.10
2023-02-13T22:36:35.146Z,32.10
2023-02-13T22:39:03.473Z,31.90
2023-02-13T22:41:30.729Z,32.20
2023-02-13T22:43:58.341Z,31.80
2023-02-13T22:46:33.762Z,31.60
2023-02-13T22:49:01.551Z,31.80
2023-02-13T22:51:31.628Z,31.80
2023-02-13T22:53:59.579Z,31.90
2023-02-13T22:56:28.466Z,32.20
2023-02-13T22:58:55.750Z,31.80
2023-02-13T23:01:24.884Z,32.00
2023-02-13T23:03:52.478Z,32.30
2023-02-13T23:06:20.311Z,31.90
2023-02-13T23:08:52.572Z,32.20
2023-02-13T23:11:40.968Z,31.80
2023-02-13T23:14:08.344Z,31.70
2023-02-13T23:16:54.158Z,31.80
2023-02-13T23:19:22.141Z,31.80
2023-02-13T23:21:49.663Z,31.90
2023-02-13T23:24:16.796Z,32.30
2023-02-13T23:26:44.182Z,32.40
2023-02-13T23:29:11.283Z,32.40
2023-02-13T23:31:38.774Z,32.30
2023-02-13T23:34:05.914Z,31.60
2023-02-13T23:36:33.217Z,32.30
2023-02-13T23:39:00.234Z,32.40
2023-02-13T23:41:27.271Z,32.20
2023-02-13T23:43:54.510Z,32.30
2023-02-13T23:46:21.584Z,32.60
2023-02-13T23:48:48.578Z,32.20
2023-02-13T23:51:18.436Z,32.20
2023-02-13T23:53:45.606Z,32.30
2023-02-13T23:56:12.705Z,32.30
2023-02-13T23:58:39.726Z,32.10
